createdAt,value
2022-07-29T00:03:41.989Z,24.2
2022-07-29T00:18:41.893Z,23.9
2022-07-29T00:48:41.877Z,23.9
2022-07-29T01:03:41.852Z,23.6
2022-07-29T01:18:41.785Z,23.1
2022-07-29T01:33:41.802Z,22.7
2022-07-29T01:48:41.820Z,22.6
2022-07-29T02:03:41.734Z,22.5
2022-07-29T02:18:41.703Z,22.4
2022-07-29T02:33:41.697Z,22.2
2022-07-29T02:48:41.689Z,22.1
2022-07-29T03:03:41.632Z,21.9
2022-07-29T03:18:41.569Z,21.8
2022-07-29T03:33:41.571Z,21.8
2022-07-29T03:48:41.573Z,21.7
2022-07-29T04:03:41.561Z,21.6
2022-07-29T04:18:41.460Z,21.3
2022-07-29T04:33:41.453Z,21.3
2022-07-29T04:48:41.436Z,21.5
2022-07-29T05:18:41.347Z,23
2022-07-29T05:33:41.357Z,23.2
2022-07-29T05:48:41.340Z,23.8
2022-07-29T06:03:41.290Z,25.4
2022-07-29T06:18:41.228Z,24.3
2022-07-29T06:33:41.209Z,24.5
2022-07-29T06:48:41.273Z,24.5
2022-07-29T07:03:41.149Z,25.8
2022-07-29T07:33:41.122Z,24.7
2022-07-29T07:48:41.111Z,24
2022-07-29T08:03:41.064Z,23.5
2022-07-29T08:18:41.010Z,23.6
2022-07-29T08:33:41.024Z,23.4
2022-07-29T08:48:40.984Z,22.7
2022-07-29T09:03:41.047Z,20.6
2022-07-29T09:18:40.930Z,18.9
2022-07-29T09:48:40.943Z,17.5
2022-07-29T10:03:40.928Z,17.7
2022-07-29T10:18:40.805Z,18
2022-07-29T10:33:40.810Z,18
2022-07-29T10:48:40.772Z,18.1
2022-07-29T11:03:40.851Z,18
2022-07-29T11:18:40.692Z,17.9
2022-07-29T11:33:56.125Z,18
2022-07-29T11:48:40.696Z,17.9
2022-07-29T12:03:40.711Z,18
2022-07-29T12:18:40.590Z,18.4
2022-07-29T12:33:40.610Z,19.6
2022-07-29T12:48:40.651Z,20.4
2022-07-29T13:03:40.558Z,20.7
2022-07-29T13:18:40.488Z,20.7
2022-07-29T13:33:40.491Z,20.9
2022-07-29T13:48:40.523Z,21
2022-07-29T14:03:40.471Z,21.2
2022-07-29T14:18:40.387Z,21.6
2022-07-29T14:33:40.400Z,22
2022-07-29T14:48:40.370Z,22.1
2022-07-29T15:03:40.340Z,22.4
2022-07-29T15:18:40.278Z,22.8
2022-07-29T15:33:40.283Z,23.2
2022-07-29T15:48:40.312Z,23.5
2022-07-29T16:03:43.106Z,23.8
2022-07-29T16:18:40.208Z,24.1
2022-07-29T16:33:55.542Z,24.2
2022-07-29T16:48:40.159Z,24.4
2022-07-29T17:03:40.117Z,24.6
2022-07-29T17:18:40.055Z,24.7
2022-07-29T17:33:40.058Z,24.6
2022-07-29T17:48:40.023Z,24.3
2022-07-29T18:03:40.013Z,24.2
2022-07-29T18:18:39.944Z,24
2022-07-29T18:33:39.928Z,23.7
2022-07-29T18:48:39.945Z,23.5
2022-07-29T19:03:39.902Z,23.4
2022-07-29T19:18:39.827Z,23.3
2022-07-29T19:33:39.808Z,23.2
2022-07-29T19:48:39.813Z,23.1
2022-07-29T20:03:40.016Z,22.9
2022-07-29T20:18:39.724Z,22.8
2022-07-29T20:33:39.698Z,22.8
2022-07-29T20:48:39.957Z,22.7
2022-07-29T21:03:39.639Z,22.4
2022-07-29T21:18:39.617Z,22.1
2022-07-29T21:33:39.587Z,21.9
2022-07-29T21:48:44.021Z,21.6
2022-07-29T22:03:39.575Z,21.5
2022-07-29T22:18:39.507Z,21.3
2022-07-29T22:33:39.513Z,21.3
2022-07-29T22:48:39.574Z,21.2
2022-07-29T23:03:39.540Z,20.9
2022-07-29T23:18:39.413Z,20.7
2022-07-29T23:33:39.411Z,20.5
2022-07-29T23:48:39.361Z,20.4
